createdAt,value
2017-10-10T00:06:46.000Z,1008.599
2017-10-10T00:16:46.000Z,1008.453
2017-10-10T00:26:46.000Z,1008.427
2017-10-10T00:36:46.000Z,1008.297
2017-10-10T00:46:46.000Z,1008.216
2017-10-10T00:56:46.000Z,1008.157
2017-10-10T01:06:46.000Z,1008.107
2017-10-10T01:16:46.000Z,1007.984
2017-10-10T01:26:46.000Z,1007.907
2017-10-10T01:36:46.000Z,1007.863
2017-10-10T01:46:46.000Z,1007.732
2017-10-10T01:56:46.000Z,1007.572
2017-10-10T02:06:46.000Z,1007.384
2017-10-10T02:16:46.000Z,1007.118
2017-10-10T02:26:46.000Z,1007.143
2017-10-10T02:36:46.000Z,1007.217
2017-10-10T02:46:46.000Z,1007.366
2017-10-10T02:56:46.000Z,1007.268
2017-10-10T03:06:46.000Z,1007.218
2017-10-10T03:16:47.000Z,1007.103
2017-10-10T03:26:47.000Z,1007.064
2017-10-10T03:36:47.000Z,1007.008
2017-10-10T03:46:47.000Z,1006.864
2017-10-10T03:56:47.000Z,1006.811
2017-10-10T04:06:47.000Z,1006.808
2017-10-10T04:16:47.000Z,1006.786
2017-10-10T04:26:47.000Z,1006.73
2017-10-10T04:36:47.000Z,1006.697
2017-10-10T04:46:47.000Z,1006.662
2017-10-10T04:56:47.000Z,1006.665
2017-10-10T05:06:47.000Z,1006.646
2017-10-10T05:16:47.000Z,1006.572
2017-10-10T05:26:47.000Z,1006.623
2017-10-10T05:36:47.000Z,1006.59
2017-10-10T05:46:47.000Z,1006.597
2017-10-10T05:56:47.000Z,1006.654
2017-10-10T06:06:47.000Z,1006.736
2017-10-10T06:16:47.000Z,1006.794
2017-10-10T06:26:47.000Z,1006.83
2017-10-10T06:36:47.000Z,1006.887
2017-10-10T06:46:47.000Z,1006.97
2017-10-10T06:56:47.000Z,1007.131
2017-10-10T07:06:47.000Z,1007.184
2017-10-10T07:16:47.000Z,1007.324
2017-10-10T07:26:47.000Z,1007.313
2017-10-10T07:36:47.000Z,1007.412
2017-10-10T07:46:47.000Z,1007.459
2017-10-10T07:56:47.000Z,1007.483
2017-10-10T08:06:47.000Z,1007.454
2017-10-10T08:16:47.000Z,1007.54
2017-10-10T08:26:47.000Z,1007.601
2017-10-10T08:36:47.000Z,1007.654
2017-10-10T08:46:47.000Z,1007.63
2017-10-10T08:56:47.000Z,1007.553
2017-10-10T09:06:47.000Z,1007.56
2017-10-10T09:16:47.000Z,1007.501
2017-10-10T09:26:47.000Z,1007.511
2017-10-10T09:36:47.000Z,1007.683
2017-10-10T09:46:47.000Z,1007.674
2017-10-10T09:56:47.000Z,1007.713
2017-10-10T10:06:47.000Z,1007.773
2017-10-10T10:16:47.000Z,1007.774
2017-10-10T10:26:47.000Z,1007.706
2017-10-10T10:36:47.000Z,1007.718
2017-10-10T10:46:47.000Z,1007.765
2017-10-10T10:56:49.000Z,1007.721
2017-10-10T11:06:47.000Z,1007.728
2017-10-10T11:16:47.000Z,1007.754
2017-10-10T11:26:47.000Z,1007.688
2017-10-10T11:36:47.000Z,1007.751
2017-10-10T11:46:47.000Z,1007.68
2017-10-10T11:56:47.000Z,1007.688
2017-10-10T12:06:48.000Z,1007.597
2017-10-10T12:16:48.000Z,1007.617
2017-10-10T12:26:48.000Z,1007.638
2017-10-10T12:36:48.000Z,1007.596
2017-10-10T12:46:48.000Z,1007.533
2017-10-10T12:56:48.000Z,1007.55
2017-10-10T13:06:48.000Z,1007.483
2017-10-10T13:16:48.000Z,1007.522
2017-10-10T13:26:48.000Z,1007.535
2017-10-10T13:36:48.000Z,1007.372
2017-10-10T13:56:48.000Z,1007.591
2017-10-10T14:06:48.000Z,1007.522
2017-10-10T14:16:48.000Z,1007.601
2017-10-10T14:26:48.000Z,1007.599
2017-10-10T14:36:48.000Z,1007.675
2017-10-10T14:46:48.000Z,1007.824
2017-10-10T14:56:49.000Z,1007.786
2017-10-10T15:06:48.000Z,1007.941
2017-10-10T15:16:48.000Z,1007.981
2017-10-10T15:26:48.000Z,1008.138
2017-10-10T15:36:48.000Z,1008.147
2017-10-10T15:46:48.000Z,1008.126
2017-10-10T15:56:48.000Z,1008.117
2017-10-10T16:06:51.000Z,1008.123
2017-10-10T16:16:48.000Z,1008.018
2017-10-10T16:26:48.000Z,1007.977
2017-10-10T16:36:49.000Z,1008.152
2017-10-10T16:46:48.000Z,1008.184
2017-10-10T16:56:48.000Z,1008.226
2017-10-10T17:06:48.000Z,1008.312
2017-10-10T17:16:48.000Z,1008.425
2017-10-10T17:26:48.000Z,1008.604
2017-10-10T17:36:48.000Z,1008.503
2017-10-10T17:46:48.000Z,1008.553
2017-10-10T17:56:48.000Z,1008.623
2017-10-10T18:06:48.000Z,1008.562
2017-10-10T18:16:48.000Z,1008.449
2017-10-10T18:26:48.000Z,1008.496
2017-10-10T18:36:48.000Z,1008.417
2017-10-10T18:46:48.000Z,1008.405
2017-10-10T18:56:48.000Z,1008.353
2017-10-10T19:06:48.000Z,1008.293
2017-10-10T19:16:48.000Z,1008.313
2017-10-10T19:26:48.000Z,1008.297
2017-10-10T19:36:48.000Z,1008.31
2017-10-10T19:46:48.000Z,1008.315
2017-10-10T19:56:48.000Z,1008.311
2017-10-10T20:06:48.000Z,1008.367
2017-10-10T20:16:48.000Z,1008.339
2017-10-10T20:26:48.000Z,1008.527
2017-10-10T20:36:49.000Z,1008.577
2017-10-10T20:46:49.000Z,1008.525
2017-10-10T20:56:49.000Z,1008.476
2017-10-10T21:06:49.000Z,1008.444
2017-10-10T21:16:49.000Z,1008.497
2017-10-10T21:26:49.000Z,1008.446
2017-10-10T21:36:49.000Z,1008.316
2017-10-10T21:46:49.000Z,1008.325
2017-10-10T21:56:49.000Z,1008.402
2017-10-10T22:06:49.000Z,1008.429
2017-10-10T22:16:49.000Z,1008.413
2017-10-10T22:26:49.000Z,1008.401
2017-10-10T22:36:49.000Z,1008.33
2017-10-10T22:46:49.000Z,1008.277
2017-10-10T22:56:49.000Z,1008.196
2017-10-10T23:06:49.000Z,1008.16
2017-10-10T23:16:49.000Z,1008.122
2017-10-10T23:26:49.000Z,1008.128
2017-10-10T23:36:49.000Z,1008.159
2017-10-10T23:46:49.000Z,1008.331
2017-10-10T23:56:49.000Z,1008.296
